sensor_id;sensor_type;location;lat;lon;timestamp;P1;durP1;ratioP1;P2;durP2;ratioP2
78108;SDS011;67354;48.068;11.612;2023-03-20T00:02:05;8.25;;;5.50;;
78108;SDS011;67354;48.068;11.612;2023-03-20T00:04:30;8.80;;;5.93;;
78108;SDS011;67354;48.068;11.612;2023-03-20T00:06:56;7.80;;;5.65;;
78108;SDS011;67354;48.068;11.612;2023-03-20T00:09:21;8.77;;;6.22;;
78108;SDS011;67354;48.068;11.612;2023-03-20T00:11:49;7.80;;;5.70;;
78108;SDS011;67354;48.068;11.612;2023-03-20T00:14:15;8.23;;;5.28;;
78108;SDS011;67354;48.068;11.612;2023-03-20T00:16:44;8.15;;;6.15;;
78108;SDS011;67354;48.068;11.612;2023-03-20T00:21:55;9.23;;;5.43;;
78108;SDS011;67354;48.068;11.612;2023-03-20T00:24:21;7.85;;;5.78;;
78108;SDS011;67354;48.068;11.612;2023-03-20T00:26:48;6.63;;;5.25;;
78108;SDS011;67354;48.068;11.612;2023-03-20T00:29:23;7.35;;;5.22;;
78108;SDS011;67354;48.068;11.612;2023-03-20T00:31:51;8.18;;;5.65;;
78108;SDS011;67354;48.068;11.612;2023-03-20T00:34:17;7.85;;;6.55;;
78108;SDS011;67354;48.068;11.612;2023-03-20T00:36:44;6.63;;;5.85;;
78108;SDS011;67354;48.068;11.612;2023-03-20T00:39:10;9.50;;;5.90;;
78108;SDS011;67354;48.068;11.612;2023-03-20T00:44:15;9.50;;;6.22;;
78108;SDS011;67354;48.068;11.612;2023-03-20T00:46:44;8.00;;;5.40;;
78108;SDS011;67354;48.068;11.612;2023-03-20T00:49:12;8.40;;;5.50;;
78108;SDS011;67354;48.068;11.612;2023-03-20T00:51:38;8.53;;;5.60;;
78108;SDS011;67354;48.068;11.612;2023-03-20T00:54:13;7.82;;;5.35;;
78108;SDS011;67354;48.068;11.612;2023-03-20T00:57:02;8.52;;;5.88;;
78108;SDS011;67354;48.068;11.612;2023-03-20T00:59:28;8.07;;;5.53;;
78108;SDS011;67354;48.068;11.612;2023-03-20T01:01:55;8.73;;;5.80;;
78108;SDS011;67354;48.068;11.612;2023-03-20T01:04:21;8.80;;;5.45;;
78108;SDS011;67354;48.068;11.612;2023-03-20T01:06:46;7.95;;;5.32;;
78108;SDS011;67354;48.068;11.612;2023-03-20T01:09:12;9.90;;;5.82;;
78108;SDS011;67354;48.068;11.612;2023-03-20T01:11:37;7.77;;;5.50;;
78108;SDS011;67354;48.068;11.612;2023-03-20T01:14:03;7.43;;;5.80;;
78108;SDS011;67354;48.068;11.612;2023-03-20T01:16:30;7.45;;;6.03;;
78108;SDS011;67354;48.068;11.612;2023-03-20T01:18:55;7.15;;;5.20;;
78108;SDS011;67354;48.068;11.612;2023-03-20T01:21:21;7.60;;;5.55;;
78108;SDS011;67354;48.068;11.612;2023-03-20T01:23:47;8.40;;;5.22;;
78108;SDS011;67354;48.068;11.612;2023-03-20T01:29:17;7.35;;;4.70;;
78108;SDS011;67354;48.068;11.612;2023-03-20T01:31:51;6.38;;;4.82;;
78108;SDS011;67354;48.068;11.612;2023-03-20T01:34:17;5.95;;;4.60;;
78108;SDS011;67354;48.068;11.612;2023-03-20T01:36:50;6.85;;;4.53;;
78108;SDS011;67354;48.068;11.612;2023-03-20T01:39:18;6.68;;;5.20;;
78108;SDS011;67354;48.068;11.612;2023-03-20T01:41:46;7.65;;;4.30;;
78108;SDS011;67354;48.068;11.612;2023-03-20T01:44:27;6.93;;;4.88;;
78108;SDS011;67354;48.068;11.612;2023-03-20T01:46:56;6.45;;;4.80;;
78108;SDS011;67354;48.068;11.612;2023-03-20T01:51:47;7.57;;;5.47;;
78108;SDS011;67354;48.068;11.612;2023-03-20T01:54:15;9.40;;;4.63;;
78108;SDS011;67354;48.068;11.612;2023-03-20T01:56:53;6.78;;;4.55;;
78108;SDS011;67354;48.068;11.612;2023-03-20T01:59:34;6.15;;;4.90;;
78108;SDS011;67354;48.068;11.612;2023-03-20T02:02:01;5.90;;;4.68;;
78108;SDS011;67354;48.068;11.612;2023-03-20T02:04:29;5.85;;;4.53;;
78108;SDS011;67354;48.068;11.612;2023-03-20T02:06:57;5.13;;;3.83;;
78108;SDS011;67354;48.068;11.612;2023-03-20T02:09:23;4.68;;;3.55;;
78108;SDS011;67354;48.068;11.612;2023-03-20T02:11:49;6.50;;;3.85;;
78108;SDS011;67354;48.068;11.612;2023-03-20T02:14:15;6.22;;;3.78;;
78108;SDS011;67354;48.068;11.612;2023-03-20T02:16:40;8.00;;;3.85;;
78108;SDS011;67354;48.068;11.612;2023-03-20T02:19:07;4.40;;;3.33;;
78108;SDS011;67354;48.068;11.612;2023-03-20T02:33:30;4.45;;;3.40;;
78108;SDS011;67354;48.068;11.612;2023-03-20T02:44:02;5.25;;;3.58;;
78108;SDS011;67354;48.068;11.612;2023-03-20T02:51:57;8.43;;;4.63;;
78108;SDS011;67354;48.068;11.612;2023-03-20T02:54:37;6.60;;;3.95;;
78108;SDS011;67354;48.068;11.612;2023-03-20T02:57:04;4.90;;;4.00;;
78108;SDS011;67354;48.068;11.612;2023-03-20T02:59:45;5.00;;;4.15;;
78108;SDS011;67354;48.068;11.612;2023-03-20T03:02:31;4.82;;;3.85;;
78108;SDS011;67354;48.068;11.612;2023-03-20T03:05:00;5.25;;;4.28;;
78108;SDS011;67354;48.068;11.612;2023-03-20T03:07:36;5.07;;;4.13;;
78108;SDS011;67354;48.068;11.612;2023-03-20T03:10:25;5.88;;;4.35;;
78108;SDS011;67354;48.068;11.612;2023-03-20T03:12:54;5.90;;;4.03;;
78108;SDS011;67354;48.068;11.612;2023-03-20T03:15:35;5.60;;;4.30;;
78108;SDS011;67354;48.068;11.612;2023-03-20T03:18:03;5.40;;;4.00;;
78108;SDS011;67354;48.068;11.612;2023-03-20T03:20:32;5.50;;;4.13;;
78108;SDS011;67354;48.068;11.612;2023-03-20T03:22:59;5.28;;;4.00;;
78108;SDS011;67354;48.068;11.612;2023-03-20T03:25:27;5.45;;;4.22;;
78108;SDS011;67354;48.068;11.612;2023-03-20T03:28:38;7.53;;;4.50;;
78108;SDS011;67354;48.068;11.612;2023-03-20T03:30:51;5.85;;;3.80;;
78108;SDS011;67354;48.068;11.612;2023-03-20T03:33:18;5.93;;;4.00;;
78108;SDS011;67354;48.068;11.612;2023-03-20T03:35:46;5.40;;;4.00;;
78108;SDS011;67354;48.068;11.612;2023-03-20T03:48:58;4.70;;;3.78;;
78108;SDS011;67354;48.068;11.612;2023-03-20T03:51:26;4.80;;;4.05;;
78108;SDS011;67354;48.068;11.612;2023-03-20T03:53:54;4.43;;;3.90;;
78108;SDS011;67354;48.068;11.612;2023-03-20T03:56:25;5.15;;;3.90;;
78108;SDS011;67354;48.068;11.612;2023-03-20T03:58:53;6.22;;;4.18;;
78108;SDS011;67354;48.068;11.612;2023-03-20T04:01:21;4.68;;;3.58;;
78108;SDS011;67354;48.068;11.612;2023-03-20T04:03:48;7.63;;;4.00;;
78108;SDS011;67354;48.068;11.612;2023-03-20T04:06:15;5.32;;;4.13;;
78108;SDS011;67354;48.068;11.612;2023-03-20T04:08:41;5.90;;;3.67;;
78108;SDS011;67354;48.068;11.612;2023-03-20T04:11:20;6.07;;;4.32;;
78108;SDS011;67354;48.068;11.612;2023-03-20T04:13:48;6.10;;;4.03;;
78108;SDS011;67354;48.068;11.612;2023-03-20T04:16:15;7.07;;;4.40;;
78108;SDS011;67354;48.068;11.612;2023-03-20T04:18:41;6.18;;;4.28;;
78108;SDS011;67354;48.068;11.612;2023-03-20T04:21:07;6.38;;;3.97;;
78108;SDS011;67354;48.068;11.612;2023-03-20T04:23:33;6.55;;;4.30;;
78108;SDS011;67354;48.068;11.612;2023-03-20T04:25:58;7.57;;;4.57;;
78108;SDS011;67354;48.068;11.612;2023-03-20T04:28:24;5.75;;;4.50;;
78108;SDS011;67354;48.068;11.612;2023-03-20T04:30:53;6.43;;;4.75;;
78108;SDS011;67354;48.068;11.612;2023-03-20T04:33:19;5.72;;;4.22;;
78108;SDS011;67354;48.068;11.612;2023-03-20T04:35:45;6.30;;;3.90;;
78108;SDS011;67354;48.068;11.612;2023-03-20T04:38:11;5.72;;;4.40;;
78108;SDS011;67354;48.068;11.612;2023-03-20T04:40:36;5.03;;;4.20;;
78108;SDS011;67354;48.068;11.612;2023-03-20T04:43:02;6.65;;;4.80;;
78108;SDS011;67354;48.068;11.612;2023-03-20T04:45:27;5.85;;;4.60;;
78108;SDS011;67354;48.068;11.612;2023-03-20T04:47:52;6.30;;;4.50;;
78108;SDS011;67354;48.068;11.612;2023-03-20T04:50:18;5.63;;;4.13;;
78108;SDS011;67354;48.068;11.612;2023-03-20T04:52:43;6.20;;;4.17;;
78108;SDS011;67354;48.068;11.612;2023-03-20T04:55:08;5.37;;;4.33;;
78108;SDS011;67354;48.068;11.612;2023-03-20T04:57:34;6.88;;;4.65;;
78108;SDS011;67354;48.068;11.612;2023-03-20T04:59:59;6.40;;;4.68;;
78108;SDS011;67354;48.068;11.612;2023-03-20T05:02:25;6.57;;;4.77;;
78108;SDS011;67354;48.068;11.612;2023-03-20T05:04:51;6.07;;;4.43;;
78108;SDS011;67354;48.068;11.612;2023-03-20T05:07:16;7.55;;;4.40;;
78108;SDS011;67354;48.068;11.612;2023-03-20T05:09:41;7.45;;;4.70;;
78108;SDS011;67354;48.068;11.612;2023-03-20T05:12:07;6.70;;;4.38;;
78108;SDS011;67354;48.068;11.612;2023-03-20T05:14:33;6.35;;;4.55;;
78108;SDS011;67354;48.068;11.612;2023-03-20T05:16:58;6.80;;;4.63;;
78108;SDS011;67354;48.068;11.612;2023-03-20T05:19:23;5.67;;;4.60;;
78108;SDS011;67354;48.068;11.612;2023-03-20T05:21:49;5.38;;;4.30;;
78108;SDS011;67354;48.068;11.612;2023-03-20T05:24:15;5.65;;;3.92;;
78108;SDS011;67354;48.068;11.612;2023-03-20T05:26:40;6.15;;;4.25;;
78108;SDS011;67354;48.068;11.612;2023-03-20T05:29:06;5.03;;;4.00;;
78108;SDS011;67354;48.068;11.612;2023-03-20T05:31:31;5.80;;;3.93;;
78108;SDS011;67354;48.068;11.612;2023-03-20T05:33:56;6.75;;;4.80;;
78108;SDS011;67354;48.068;11.612;2023-03-20T05:36:22;7.10;;;4.55;;
78108;SDS011;67354;48.068;11.612;2023-03-20T05:38:47;6.35;;;3.70;;
78108;SDS011;67354;48.068;11.612;2023-03-20T05:41:12;6.60;;;4.27;;
78108;SDS011;67354;48.068;11.612;2023-03-20T05:43:38;7.07;;;3.80;;
78108;SDS011;67354;48.068;11.612;2023-03-20T05:46:03;4.83;;;3.57;;
78108;SDS011;67354;48.068;11.612;2023-03-20T05:48:29;6.05;;;3.88;;
78108;SDS011;67354;48.068;11.612;2023-03-20T05:50:54;5.53;;;3.97;;
78108;SDS011;67354;48.068;11.612;2023-03-20T05:53:20;4.35;;;3.40;;
78108;SDS011;67354;48.068;11.612;2023-03-20T05:55:45;5.07;;;3.70;;
78108;SDS011;67354;48.068;11.612;2023-03-20T05:58:11;5.93;;;3.95;;
78108;SDS011;67354;48.068;11.612;2023-03-20T06:00:36;4.97;;;3.90;;
78108;SDS011;67354;48.068;11.612;2023-03-20T06:03:02;4.93;;;3.80;;
78108;SDS011;67354;48.068;11.612;2023-03-20T06:05:27;4.95;;;3.88;;
78108;SDS011;67354;48.068;11.612;2023-03-20T06:07:53;5.23;;;3.60;;
78108;SDS011;67354;48.068;11.612;2023-03-20T06:10:18;7.47;;;4.03;;
78108;SDS011;67354;48.068;11.612;2023-03-20T06:12:44;6.90;;;4.00;;
78108;SDS011;67354;48.068;11.612;2023-03-20T06:15:10;7.78;;;4.65;;
78108;SDS011;67354;48.068;11.612;2023-03-20T06:17:36;7.38;;;4.25;;
78108;SDS011;67354;48.068;11.612;2023-03-20T06:20:01;6.90;;;4.23;;
78108;SDS011;67354;48.068;11.612;2023-03-20T06:22:27;7.45;;;5.13;;
78108;SDS011;67354;48.068;11.612;2023-03-20T06:24:52;6.00;;;4.40;;
78108;SDS011;67354;48.068;11.612;2023-03-20T06:27:18;8.93;;;5.32;;
78108;SDS011;67354;48.068;11.612;2023-03-20T06:29:43;7.13;;;4.70;;
78108;SDS011;67354;48.068;11.612;2023-03-20T06:32:08;7.57;;;4.53;;
78108;SDS011;67354;48.068;11.612;2023-03-20T06:34:36;7.25;;;4.57;;
78108;SDS011;67354;48.068;11.612;2023-03-20T06:37:01;7.80;;;4.53;;
78108;SDS011;67354;48.068;11.612;2023-03-20T06:39:27;6.25;;;4.63;;
78108;SDS011;67354;48.068;11.612;2023-03-20T06:41:52;7.38;;;4.75;;
78108;SDS011;67354;48.068;11.612;2023-03-20T06:44:18;8.50;;;4.65;;
78108;SDS011;67354;48.068;11.612;2023-03-20T06:46:43;8.00;;;5.27;;
78108;SDS011;67354;48.068;11.612;2023-03-20T06:49:08;7.40;;;4.70;;
78108;SDS011;67354;48.068;11.612;2023-03-20T06:51:34;7.90;;;4.63;;
78108;SDS011;67354;48.068;11.612;2023-03-20T06:53:59;9.87;;;4.67;;
78108;SDS011;67354;48.068;11.612;2023-03-20T06:56:24;8.20;;;5.22;;
78108;SDS011;67354;48.068;11.612;2023-03-20T06:58:50;8.77;;;5.05;;
78108;SDS011;67354;48.068;11.612;2023-03-20T07:01:15;6.82;;;4.75;;
78108;SDS011;67354;48.068;11.612;2023-03-20T07:03:43;8.38;;;4.97;;
78108;SDS011;67354;48.068;11.612;2023-03-20T07:06:09;7.15;;;5.20;;
78108;SDS011;67354;48.068;11.612;2023-03-20T07:08:35;9.07;;;5.50;;
78108;SDS011;67354;48.068;11.612;2023-03-20T07:11:01;6.97;;;4.85;;
78108;SDS011;67354;48.068;11.612;2023-03-20T07:13:28;9.57;;;5.10;;
78108;SDS011;67354;48.068;11.612;2023-03-20T07:15:53;8.70;;;5.07;;
78108;SDS011;67354;48.068;11.612;2023-03-20T07:18:19;9.07;;;5.53;;
78108;SDS011;67354;48.068;11.612;2023-03-20T07:20:45;9.30;;;5.30;;
78108;SDS011;67354;48.068;11.612;2023-03-20T07:23:10;9.00;;;5.88;;
78108;SDS011;67354;48.068;11.612;2023-03-20T07:25:35;7.38;;;5.25;;
78108;SDS011;67354;48.068;11.612;2023-03-20T07:28:01;9.93;;;5.70;;
78108;SDS011;67354;48.068;11.612;2023-03-20T07:30:26;10.30;;;5.93;;
78108;SDS011;67354;48.068;11.612;2023-03-20T07:32:52;11.38;;;6.40;;
78108;SDS011;67354;48.068;11.612;2023-03-20T07:35:17;8.80;;;5.55;;
78108;SDS011;67354;48.068;11.612;2023-03-20T07:37:43;7.68;;;5.53;;
78108;SDS011;67354;48.068;11.612;2023-03-20T07:40:08;8.98;;;5.78;;
78108;SDS011;67354;48.068;11.612;2023-03-20T07:42:36;10.43;;;6.50;;
78108;SDS011;67354;48.068;11.612;2023-03-20T07:45:01;10.13;;;6.47;;
78108;SDS011;67354;48.068;11.612;2023-03-20T07:47:26;9.13;;;5.88;;
78108;SDS011;67354;48.068;11.612;2023-03-20T07:49:52;10.05;;;6.20;;
78108;SDS011;67354;48.068;11.612;2023-03-20T07:52:17;9.93;;;6.47;;
78108;SDS011;67354;48.068;11.612;2023-03-20T07:54:42;11.17;;;6.93;;
78108;SDS011;67354;48.068;11.612;2023-03-20T07:57:08;9.60;;;6.03;;
78108;SDS011;67354;48.068;11.612;2023-03-20T07:59:33;11.17;;;6.87;;
78108;SDS011;67354;48.068;11.612;2023-03-20T08:01:58;11.88;;;6.60;;
78108;SDS011;67354;48.068;11.612;2023-03-20T08:04:24;11.55;;;6.95;;
78108;SDS011;67354;48.068;11.612;2023-03-20T08:06:50;12.55;;;7.18;;
78108;SDS011;67354;48.068;11.612;2023-03-20T08:09:15;10.70;;;6.80;;
78108;SDS011;67354;48.068;11.612;2023-03-20T08:11:41;13.43;;;8.70;;
78108;SDS011;67354;48.068;11.612;2023-03-20T08:14:06;13.77;;;8.93;;
78108;SDS011;67354;48.068;11.612;2023-03-20T08:16:32;19.25;;;14.10;;
78108;SDS011;67354;48.068;11.612;2023-03-20T08:18:57;16.85;;;11.40;;
78108;SDS011;67354;48.068;11.612;2023-03-20T08:21:28;18.60;;;13.77;;
78108;SDS011;67354;48.068;11.612;2023-03-20T08:23:54;15.10;;;9.20;;
78108;SDS011;67354;48.068;11.612;2023-03-20T08:26:20;13.30;;;9.02;;
78108;SDS011;67354;48.068;11.612;2023-03-20T08:28:46;13.52;;;7.90;;
78108;SDS011;67354;48.068;11.612;2023-03-20T08:31:11;14.10;;;8.33;;
78108;SDS011;67354;48.068;11.612;2023-03-20T08:33:37;14.18;;;8.15;;
78108;SDS011;67354;48.068;11.612;2023-03-20T08:36:02;12.35;;;7.82;;
78108;SDS011;67354;48.068;11.612;2023-03-20T08:38:28;12.35;;;7.88;;
78108;SDS011;67354;48.068;11.612;2023-03-20T08:40:53;12.80;;;7.95;;
78108;SDS011;67354;48.068;11.612;2023-03-20T08:43:19;11.18;;;7.25;;
78108;SDS011;67354;48.068;11.612;2023-03-20T08:45:44;12.90;;;7.28;;
78108;SDS011;67354;48.068;11.612;2023-03-20T08:48:10;18.25;;;10.98;;
78108;SDS011;67354;48.068;11.612;2023-03-20T08:50:35;12.68;;;7.63;;
78108;SDS011;67354;48.068;11.612;2023-03-20T08:53:02;11.48;;;7.70;;
78108;SDS011;67354;48.068;11.612;2023-03-20T08:55:28;12.07;;;7.40;;
78108;SDS011;67354;48.068;11.612;2023-03-20T08:57:53;19.53;;;11.93;;
78108;SDS011;67354;48.068;11.612;2023-03-20T09:00:21;15.70;;;9.23;;
78108;SDS011;67354;48.068;11.612;2023-03-20T09:02:47;13.35;;;8.32;;
78108;SDS011;67354;48.068;11.612;2023-03-20T09:05:13;10.52;;;6.28;;
78108;SDS011;67354;48.068;11.612;2023-03-20T09:07:38;10.35;;;6.15;;
78108;SDS011;67354;48.068;11.612;2023-03-20T09:10:04;7.18;;;5.13;;
78108;SDS011;67354;48.068;11.612;2023-03-20T09:12:30;7.28;;;5.72;;
78108;SDS011;67354;48.068;11.612;2023-03-20T09:14:56;7.85;;;5.10;;
78108;SDS011;67354;48.068;11.612;2023-03-20T09:17:22;10.07;;;6.63;;
78108;SDS011;67354;48.068;11.612;2023-03-20T09:19:47;5.43;;;4.37;;
78108;SDS011;67354;48.068;11.612;2023-03-20T09:22:13;7.47;;;4.03;;
78108;SDS011;67354;48.068;11.612;2023-03-20T09:24:39;6.15;;;4.43;;
78108;SDS011;67354;48.068;11.612;2023-03-20T09:27:05;5.80;;;4.10;;
78108;SDS011;67354;48.068;11.612;2023-03-20T09:29:31;4.70;;;3.70;;
78108;SDS011;67354;48.068;11.612;2023-03-20T09:31:56;5.93;;;3.67;;
78108;SDS011;67354;48.068;11.612;2023-03-20T09:34:22;5.07;;;3.73;;
78108;SDS011;67354;48.068;11.612;2023-03-20T09:36:48;5.97;;;3.50;;
78108;SDS011;67354;48.068;11.612;2023-03-20T09:39:13;4.72;;;3.53;;
78108;SDS011;67354;48.068;11.612;2023-03-20T09:41:39;4.07;;;3.60;;
78108;SDS011;67354;48.068;11.612;2023-03-20T09:54:43;5.18;;;3.30;;
78108;SDS011;67354;48.068;11.612;2023-03-20T09:57:23;4.70;;;3.20;;
78108;SDS011;67354;48.068;11.612;2023-03-20T09:59:52;4.25;;;3.13;;
78108;SDS011;67354;48.068;11.612;2023-03-20T10:02:22;6.03;;;3.30;;
78108;SDS011;67354;48.068;11.612;2023-03-20T10:04:54;5.95;;;3.53;;
78108;SDS011;67354;48.068;11.612;2023-03-20T10:07:19;6.28;;;3.53;;
78108;SDS011;67354;48.068;11.612;2023-03-20T10:09:46;5.10;;;3.42;;
78108;SDS011;67354;48.068;11.612;2023-03-20T10:17:55;3.47;;;2.78;;
78108;SDS011;67354;48.068;11.612;2023-03-20T10:20:41;3.60;;;2.88;;
78108;SDS011;67354;48.068;11.612;2023-03-20T10:23:23;4.10;;;3.08;;
78108;SDS011;67354;48.068;11.612;2023-03-20T10:25:53;4.35;;;2.83;;
78108;SDS011;67354;48.068;11.612;2023-03-20T10:28:21;3.60;;;2.67;;
78108;SDS011;67354;48.068;11.612;2023-03-20T10:33:26;3.95;;;2.70;;
78108;SDS011;67354;48.068;11.612;2023-03-20T10:41:25;3.60;;;2.50;;
78108;SDS011;67354;48.068;11.612;2023-03-20T10:43:53;2.08;;;1.73;;
78108;SDS011;67354;48.068;11.612;2023-03-20T10:48:51;2.97;;;1.90;;
78108;SDS011;67354;48.068;11.612;2023-03-20T10:51:21;4.75;;;2.00;;
78108;SDS011;67354;48.068;11.612;2023-03-20T10:53:51;3.85;;;2.25;;
78108;SDS011;67354;48.068;11.612;2023-03-20T10:56:37;3.10;;;1.90;;
78108;SDS011;67354;48.068;11.612;2023-03-20T10:59:07;3.00;;;2.00;;
78108;SDS011;67354;48.068;11.612;2023-03-20T11:01:36;2.80;;;1.90;;
78108;SDS011;67354;48.068;11.612;2023-03-20T11:04:02;2.65;;;2.03;;
78108;SDS011;67354;48.068;11.612;2023-03-20T11:06:30;2.50;;;1.80;;
78108;SDS011;67354;48.068;11.612;2023-03-20T11:08:56;2.88;;;1.88;;
78108;SDS011;67354;48.068;11.612;2023-03-20T11:11:35;3.45;;;1.77;;
78108;SDS011;67354;48.068;11.612;2023-03-20T11:14:17;2.78;;;1.88;;
78108;SDS011;67354;48.068;11.612;2023-03-20T11:16:53;4.65;;;1.80;;
78108;SDS011;67354;48.068;11.612;2023-03-20T11:19:20;3.05;;;1.65;;
78108;SDS011;67354;48.068;11.612;2023-03-20T11:24:19;3.83;;;1.98;;
78108;SDS011;67354;48.068;11.612;2023-03-20T11:26:48;2.40;;;1.80;;
78108;SDS011;67354;48.068;11.612;2023-03-20T11:29:25;2.05;;;1.50;;
78108;SDS011;67354;48.068;11.612;2023-03-20T11:31:53;3.03;;;1.80;;
78108;SDS011;67354;48.068;11.612;2023-03-20T11:34:21;2.10;;;1.60;;
78108;SDS011;67354;48.068;11.612;2023-03-20T11:36:54;4.65;;;1.90;;
78108;SDS011;67354;48.068;11.612;2023-03-20T11:39:25;4.00;;;2.20;;
78108;SDS011;67354;48.068;11.612;2023-03-20T11:41:56;3.13;;;1.83;;
78108;SDS011;67354;48.068;11.612;2023-03-20T11:44:24;3.13;;;1.95;;
78108;SDS011;67354;48.068;11.612;2023-03-20T11:47:03;3.35;;;1.77;;
78108;SDS011;67354;48.068;11.612;2023-03-20T11:49:31;3.13;;;1.80;;
78108;SDS011;67354;48.068;11.612;2023-03-20T11:52:16;3.08;;;1.70;;
78108;SDS011;67354;48.068;11.612;2023-03-20T11:54:49;2.78;;;2.00;;
78108;SDS011;67354;48.068;11.612;2023-03-20T12:00:28;3.35;;;1.73;;
78108;SDS011;67354;48.068;11.612;2023-03-20T12:03:09;2.33;;;1.77;;
78108;SDS011;67354;48.068;11.612;2023-03-20T12:05:58;2.83;;;1.98;;
78108;SDS011;67354;48.068;11.612;2023-03-20T12:08:25;2.60;;;1.70;;
78108;SDS011;67354;48.068;11.612;2023-03-20T12:10:56;2.15;;;1.80;;
78108;SDS011;67354;48.068;11.612;2023-03-20T12:13:24;3.13;;;1.80;;
78108;SDS011;67354;48.068;11.612;2023-03-20T12:16:05;3.72;;;1.90;;
78108;SDS011;67354;48.068;11.612;2023-03-20T12:18:43;2.88;;;1.80;;
78108;SDS011;67354;48.068;11.612;2023-03-20T12:21:18;2.30;;;1.85;;
78108;SDS011;67354;48.068;11.612;2023-03-20T12:23:52;2.80;;;1.75;;
78108;SDS011;67354;48.068;11.612;2023-03-20T12:29:06;4.05;;;1.88;;
78108;SDS011;67354;48.068;11.612;2023-03-20T12:37:15;2.90;;;2.08;;
78108;SDS011;67354;48.068;11.612;2023-03-20T12:39:52;3.92;;;2.53;;
78108;SDS011;67354;48.068;11.612;2023-03-20T12:42:35;3.08;;;1.92;;
78108;SDS011;67354;48.068;11.612;2023-03-20T12:45:09;3.03;;;2.10;;
78108;SDS011;67354;48.068;11.612;2023-03-20T12:50:39;3.92;;;2.33;;
78108;SDS011;67354;48.068;11.612;2023-03-20T12:56:10;4.25;;;2.28;;
78108;SDS011;67354;48.068;11.612;2023-03-20T12:58:46;3.65;;;2.30;;
78108;SDS011;67354;48.068;11.612;2023-03-20T13:07:00;3.88;;;2.67;;
78108;SDS011;67354;48.068;11.612;2023-03-20T13:14:52;4.95;;;3.10;;
78108;SDS011;67354;48.068;11.612;2023-03-20T13:28:55;3.50;;;2.42;;
78108;SDS011;67354;48.068;11.612;2023-03-20T13:36:39;2.72;;;1.90;;
78108;SDS011;67354;48.068;11.612;2023-03-20T13:39:28;2.67;;;1.88;;
78108;SDS011;67354;48.068;11.612;2023-03-20T13:41:55;3.65;;;1.83;;
78108;SDS011;67354;48.068;11.612;2023-03-20T13:44:23;2.45;;;2.03;;
78108;SDS011;67354;48.068;11.612;2023-03-20T13:46:53;3.67;;;2.70;;
78108;SDS011;67354;48.068;11.612;2023-03-20T13:49:26;2.63;;;2.08;;
78108;SDS011;67354;48.068;11.612;2023-03-20T14:03:42;3.60;;;2.00;;
78108;SDS011;67354;48.068;11.612;2023-03-20T14:06:52;2.85;;;2.17;;
78108;SDS011;67354;48.068;11.612;2023-03-20T14:09:04;3.63;;;2.75;;
78108;SDS011;67354;48.068;11.612;2023-03-20T14:11:49;3.97;;;2.47;;
78108;SDS011;67354;48.068;11.612;2023-03-20T14:14:19;3.53;;;2.47;;
78108;SDS011;67354;48.068;11.612;2023-03-20T14:17:05;4.13;;;2.58;;
78108;SDS011;67354;48.068;11.612;2023-03-20T14:19:34;2.92;;;2.20;;
78108;SDS011;67354;48.068;11.612;2023-03-20T14:22:00;3.25;;;2.13;;
78108;SDS011;67354;48.068;11.612;2023-03-20T14:24:26;3.80;;;2.30;;
78108;SDS011;67354;48.068;11.612;2023-03-20T14:26:54;4.55;;;2.17;;
78108;SDS011;67354;48.068;11.612;2023-03-20T14:29:34;4.38;;;2.53;;
78108;SDS011;67354;48.068;11.612;2023-03-20T14:32:02;3.42;;;2.17;;
78108;SDS011;67354;48.068;11.612;2023-03-20T14:34:28;3.20;;;2.20;;
78108;SDS011;67354;48.068;11.612;2023-03-20T14:37:26;4.28;;;2.53;;
78108;SDS011;67354;48.068;11.612;2023-03-20T14:50:30;4.07;;;2.50;;
78108;SDS011;67354;48.068;11.612;2023-03-20T14:57:54;4.95;;;2.38;;
78108;SDS011;67354;48.068;11.612;2023-03-20T15:00:21;3.10;;;2.47;;
78108;SDS011;67354;48.068;11.612;2023-03-20T15:02:48;4.10;;;2.47;;
78108;SDS011;67354;48.068;11.612;2023-03-20T15:05:25;3.80;;;2.25;;
78108;SDS011;67354;48.068;11.612;2023-03-20T15:07:54;4.53;;;2.80;;
78108;SDS011;67354;48.068;11.612;2023-03-20T15:10:20;3.50;;;2.50;;
78108;SDS011;67354;48.068;11.612;2023-03-20T15:12:46;5.13;;;2.45;;
78108;SDS011;67354;48.068;11.612;2023-03-20T15:15:22;3.83;;;2.53;;
78108;SDS011;67354;48.068;11.612;2023-03-20T15:22:57;3.13;;;2.25;;
78108;SDS011;67354;48.068;11.612;2023-03-20T15:25:35;4.00;;;2.40;;
78108;SDS011;67354;48.068;11.612;2023-03-20T15:28:07;4.45;;;2.85;;
78108;SDS011;67354;48.068;11.612;2023-03-20T15:30:41;4.45;;;2.55;;
78108;SDS011;67354;48.068;11.612;2023-03-20T15:33:11;3.30;;;2.50;;
78108;SDS011;67354;48.068;11.612;2023-03-20T15:35:40;9.02;;;4.38;;
78108;SDS011;67354;48.068;11.612;2023-03-20T15:38:05;4.03;;;3.38;;
78108;SDS011;67354;48.068;11.612;2023-03-20T15:40:32;4.03;;;2.90;;
78108;SDS011;67354;48.068;11.612;2023-03-20T15:43:24;4.63;;;2.50;;
78108;SDS011;67354;48.068;11.612;2023-03-20T15:45:48;4.35;;;2.50;;
78108;SDS011;67354;48.068;11.612;2023-03-20T15:48:18;5.47;;;2.90;;
78108;SDS011;67354;48.068;11.612;2023-03-20T15:50:48;5.28;;;2.70;;
78108;SDS011;67354;48.068;11.612;2023-03-20T15:53:20;4.07;;;2.50;;
78108;SDS011;67354;48.068;11.612;2023-03-20T15:55:51;3.38;;;2.70;;
78108;SDS011;67354;48.068;11.612;2023-03-20T15:58:25;3.63;;;2.83;;
78108;SDS011;67354;48.068;11.612;2023-03-20T16:00:51;4.13;;;2.80;;
78108;SDS011;67354;48.068;11.612;2023-03-20T16:03:17;4.15;;;2.63;;
78108;SDS011;67354;48.068;11.612;2023-03-20T16:05:45;5.55;;;2.70;;
78108;SDS011;67354;48.068;11.612;2023-03-20T16:10:56;4.90;;;3.42;;
78108;SDS011;67354;48.068;11.612;2023-03-20T16:13:23;4.68;;;3.20;;
78108;SDS011;67354;48.068;11.612;2023-03-20T16:15:51;3.78;;;2.50;;
78108;SDS011;67354;48.068;11.612;2023-03-20T16:18:17;3.30;;;2.42;;
78108;SDS011;67354;48.068;11.612;2023-03-20T16:20:45;5.35;;;3.13;;
78108;SDS011;67354;48.068;11.612;2023-03-20T16:25:57;7.90;;;3.80;;
78108;SDS011;67354;48.068;11.612;2023-03-20T16:28:24;5.50;;;2.97;;
78108;SDS011;67354;48.068;11.612;2023-03-20T16:30:51;4.07;;;2.83;;
78108;SDS011;67354;48.068;11.612;2023-03-20T16:33:17;4.30;;;2.70;;
78108;SDS011;67354;48.068;11.612;2023-03-20T16:35:43;7.65;;;3.47;;
78108;SDS011;67354;48.068;11.612;2023-03-20T16:43:46;4.63;;;2.83;;
78108;SDS011;67354;48.068;11.612;2023-03-20T16:46:16;3.97;;;2.63;;
78108;SDS011;67354;48.068;11.612;2023-03-20T16:48:49;4.28;;;2.65;;
78108;SDS011;67354;48.068;11.612;2023-03-20T16:51:17;4.20;;;2.95;;
78108;SDS011;67354;48.068;11.612;2023-03-20T16:53:46;7.10;;;3.58;;
78108;SDS011;67354;48.068;11.612;2023-03-20T16:56:20;5.53;;;3.25;;
78108;SDS011;67354;48.068;11.612;2023-03-20T16:58:50;4.93;;;3.28;;
78108;SDS011;67354;48.068;11.612;2023-03-20T17:01:17;6.93;;;3.58;;
78108;SDS011;67354;48.068;11.612;2023-03-20T17:03:46;5.13;;;3.05;;
78108;SDS011;67354;48.068;11.612;2023-03-20T17:08:48;3.60;;;3.15;;
78108;SDS011;67354;48.068;11.612;2023-03-20T17:11:21;4.30;;;2.67;;
78108;SDS011;67354;48.068;11.612;2023-03-20T17:13:52;6.40;;;3.30;;
78108;SDS011;67354;48.068;11.612;2023-03-20T17:16:18;3.33;;;2.78;;
78108;SDS011;67354;48.068;11.612;2023-03-20T17:18:45;8.07;;;3.70;;
78108;SDS011;67354;48.068;11.612;2023-03-20T17:21:12;7.18;;;4.28;;
78108;SDS011;67354;48.068;11.612;2023-03-20T17:23:37;6.07;;;3.58;;
78108;SDS011;67354;48.068;11.612;2023-03-20T17:26:03;7.50;;;4.13;;
78108;SDS011;67354;48.068;11.612;2023-03-20T17:28:31;8.50;;;4.65;;
78108;SDS011;67354;48.068;11.612;2023-03-20T17:30:58;8.50;;;4.82;;